sensor_id;sensor_type;location;lat;lon;timestamp;temperature;humidity
12370;DHT22;6249;52.128;9.986;2023-03-01T00:03:12;-1.00;99.90
12370;DHT22;6249;52.128;9.986;2023-03-01T00:06:35;-1.00;99.90
12370;DHT22;6249;52.128;9.986;2023-03-01T00:09:56;-1.00;99.90
12370;DHT22;6249;52.128;9.986;2023-03-01T00:13:20;-1.00;99.90
12370;DHT22;6249;52.128;9.986;2023-03-01T00:16:45;-1.00;99.90
12370;DHT22;6249;52.128;9.986;2023-03-01T00:20:06;-1.00;99.90
12370;DHT22;6249;52.128;9.986;2023-03-01T00:23:30;-1.00;99.90
12370;DHT22;6249;52.128;9.986;2023-03-01T00:26:54;-1.10;99.90
12370;DHT22;6249;52.128;9.986;2023-03-01T00:30:16;-1.10;99.90
12370;DHT22;6249;52.128;9.986;2023-03-01T00:33:39;-1.20;99.90
12370;DHT22;6249;52.128;9.986;2023-03-01T00:37:00;-1.30;99.90
12370;DHT22;6249;52.128;9.986;2023-03-01T00:40:26;-1.30;99.90
12370;DHT22;6249;52.128;9.986;2023-03-01T00:43:47;-1.40;99.90
12370;DHT22;6249;52.128;9.986;2023-03-01T00:47:08;-1.50;99.90
12370;DHT22;6249;52.128;9.986;2023-03-01T00:50:31;-1.50;99.90
12370;DHT22;6249;52.128;9.986;2023-03-01T00:53:57;-1.50;99.90
12370;DHT22;6249;52.128;9.986;2023-03-01T00:57:17;-1.50;99.90
12370;DHT22;6249;52.128;9.986;2023-03-01T01:00:38;-1.60;99.90
12370;DHT22;6249;52.128;9.986;2023-03-01T01:04:01;-1.70;99.90
12370;DHT22;6249;52.128;9.986;2023-03-01T01:07:22;-1.70;99.90
12370;DHT22;6249;52.128;9.986;2023-03-01T01:10:46;-1.60;99.90
12370;DHT22;6249;52.128;9.986;2023-03-01T01:14:06;-1.60;99.90
12370;DHT22;6249;52.128;9.986;2023-03-01T01:17:27;-1.70;99.90
12370;DHT22;6249;52.128;9.986;2023-03-01T01:20:48;-1.70;99.90
12370;DHT22;6249;52.128;9.986;2023-03-01T01:24:09;-1.80;99.90
12370;DHT22;6249;52.128;9.986;2023-03-01T01:27:30;-1.80;99.90
12370;DHT22;6249;52.128;9.986;2023-03-01T01:30:50;-1.80;99.90
12370;DHT22;6249;52.128;9.986;2023-03-01T01:34:16;-1.90;99.90
12370;DHT22;6249;52.128;9.986;2023-03-01T01:37:39;-2.00;99.90
12370;DHT22;6249;52.128;9.986;2023-03-01T01:41:00;-2.00;99.90
12370;DHT22;6249;52.128;9.986;2023-03-01T01:44:26;-2.10;99.90
12370;DHT22;6249;52.128;9.986;2023-03-01T01:47:47;-2.10;99.90
12370;DHT22;6249;52.128;9.986;2023-03-01T01:51:18;-2.10;99.90
12370;DHT22;6249;52.128;9.986;2023-03-01T01:58:07;-2.10;99.90
12370;DHT22;6249;52.128;9.986;2023-03-01T02:01:29;-2.20;99.90
12370;DHT22;6249;52.128;9.986;2023-03-01T02:04:54;-2.30;99.90
12370;DHT22;6249;52.128;9.986;2023-03-01T02:08:21;-2.30;99.90
12370;DHT22;6249;52.128;9.986;2023-03-01T02:11:49;-2.40;99.90
12370;DHT22;6249;52.128;9.986;2023-03-01T02:15:10;-2.50;99.90
12370;DHT22;6249;52.128;9.986;2023-03-01T02:18:31;-2.50;99.90
12370;DHT22;6249;52.128;9.986;2023-03-01T02:29:13;-2.60;99.90
12370;DHT22;6249;52.128;9.986;2023-03-01T02:32:36;-2.60;99.90
12370;DHT22;6249;52.128;9.986;2023-03-01T02:36:18;-2.70;99.90
12370;DHT22;6249;52.128;9.986;2023-03-01T02:39:46;-2.70;99.90
12370;DHT22;6249;52.128;9.986;2023-03-01T02:43:10;-2.70;99.90
12370;DHT22;6249;52.128;9.986;2023-03-01T02:46:32;-2.70;99.90
12370;DHT22;6249;52.128;9.986;2023-03-01T02:49:55;-2.80;99.90
12370;DHT22;6249;52.128;9.986;2023-03-01T02:57:10;-2.90;99.90
12370;DHT22;6249;52.128;9.986;2023-03-01T03:00:39;-2.90;99.90
12370;DHT22;6249;52.128;9.986;2023-03-01T03:04:03;-2.90;99.90
12370;DHT22;6249;52.128;9.986;2023-03-01T03:07:23;-3.00;99.90
12370;DHT22;6249;52.128;9.986;2023-03-01T03:10:44;-3.00;99.90
12370;DHT22;6249;52.128;9.986;2023-03-01T03:14:07;-3.10;99.90
12370;DHT22;6249;52.128;9.986;2023-03-01T03:17:32;-3.10;99.90
12370;DHT22;6249;52.128;9.986;2023-03-01T03:20:53;-3.20;99.90
12370;DHT22;6249;52.128;9.986;2023-03-01T03:24:17;-3.20;99.90
12370;DHT22;6249;52.128;9.986;2023-03-01T03:27:40;-3.20;99.90
12370;DHT22;6249;52.128;9.986;2023-03-01T03:31:01;-3.10;99.90
12370;DHT22;6249;52.128;9.986;2023-03-01T03:34:24;-2.90;99.90
12370;DHT22;6249;52.128;9.986;2023-03-01T03:37:47;-2.90;99.90
12370;DHT22;6249;52.128;9.986;2023-03-01T03:41:37;-2.90;99.90
12370;DHT22;6249;52.128;9.986;2023-03-01T03:44:58;-2.80;99.90
12370;DHT22;6249;52.128;9.986;2023-03-01T03:48:19;-2.70;99.90
12370;DHT22;6249;52.128;9.986;2023-03-01T03:51:40;-2.80;99.90
12370;DHT22;6249;52.128;9.986;2023-03-01T03:55:01;-3.00;99.90
12370;DHT22;6249;52.128;9.986;2023-03-01T03:58:23;-3.10;99.90
12370;DHT22;6249;52.128;9.986;2023-03-01T04:01:46;-3.30;99.90
12370;DHT22;6249;52.128;9.986;2023-03-01T04:05:09;-3.30;99.90
12370;DHT22;6249;52.128;9.986;2023-03-01T04:08:31;-3.40;99.90
12370;DHT22;6249;52.128;9.986;2023-03-01T04:11:54;-3.40;99.90
12370;DHT22;6249;52.128;9.986;2023-03-01T04:15:17;-3.40;99.90
12370;DHT22;6249;52.128;9.986;2023-03-01T04:18:37;-3.50;99.90
12370;DHT22;6249;52.128;9.986;2023-03-01T04:22:00;-3.50;99.90
12370;DHT22;6249;52.128;9.986;2023-03-01T04:25:20;-3.40;99.90
12370;DHT22;6249;52.128;9.986;2023-03-01T04:28:43;-3.40;99.90
12370;DHT22;6249;52.128;9.986;2023-03-01T04:32:06;-3.40;99.90
12370;DHT22;6249;52.128;9.986;2023-03-01T04:35:26;-3.40;99.90
12370;DHT22;6249;52.128;9.986;2023-03-01T04:38:48;-3.30;99.90
12370;DHT22;6249;52.128;9.986;2023-03-01T04:42:12;-3.30;99.90
12370;DHT22;6249;52.128;9.986;2023-03-01T04:45:35;-3.40;99.90
12370;DHT22;6249;52.128;9.986;2023-03-01T04:48:58;-3.60;99.90
12370;DHT22;6249;52.128;9.986;2023-03-01T04:52:19;-3.60;99.90
12370;DHT22;6249;52.128;9.986;2023-03-01T04:55:39;-3.60;99.90
12370;DHT22;6249;52.128;9.986;2023-03-01T04:59:00;-3.60;99.90
12370;DHT22;6249;52.128;9.986;2023-03-01T05:02:23;-3.60;99.90
12370;DHT22;6249;52.128;9.986;2023-03-01T05:05:48;-3.70;99.90
12370;DHT22;6249;52.128;9.986;2023-03-01T05:09:09;-3.80;99.90
12370;DHT22;6249;52.128;9.986;2023-03-01T05:12:31;-3.80;99.90
12370;DHT22;6249;52.128;9.986;2023-03-01T05:15:56;-3.90;99.90
12370;DHT22;6249;52.128;9.986;2023-03-01T05:19:17;-3.90;99.90
12370;DHT22;6249;52.128;9.986;2023-03-01T05:22:43;-3.80;99.90
12370;DHT22;6249;52.128;9.986;2023-03-01T05:26:05;-3.70;99.90
12370;DHT22;6249;52.128;9.986;2023-03-01T05:29:28;-3.70;99.90
12370;DHT22;6249;52.128;9.986;2023-03-01T05:32:50;-3.70;99.90
12370;DHT22;6249;52.128;9.986;2023-03-01T05:36:15;-3.70;99.90
12370;DHT22;6249;52.128;9.986;2023-03-01T05:39:36;-3.50;99.90
12370;DHT22;6249;52.128;9.986;2023-03-01T05:42:57;-3.50;99.90
12370;DHT22;6249;52.128;9.986;2023-03-01T05:46:17;-3.60;99.90
12370;DHT22;6249;52.128;9.986;2023-03-01T05:49:38;-3.70;99.90
12370;DHT22;6249;52.128;9.986;2023-03-01T05:53:04;-3.90;99.90
12370;DHT22;6249;52.128;9.986;2023-03-01T05:56:28;-4.00;99.90
12370;DHT22;6249;52.128;9.986;2023-03-01T05:59:49;-2.70;99.90
12370;DHT22;6249;52.128;9.986;2023-03-01T06:03:14;-3.90;99.90
12370;DHT22;6249;52.128;9.986;2023-03-01T06:06:36;-3.90;99.90
12370;DHT22;6249;52.128;9.986;2023-03-01T06:10:00;-3.90;99.90
12370;DHT22;6249;52.128;9.986;2023-03-01T06:13:22;-3.90;99.90
12370;DHT22;6249;52.128;9.986;2023-03-01T06:16:43;-3.90;99.90
12370;DHT22;6249;52.128;9.986;2023-03-01T06:20:05;-4.00;99.90
12370;DHT22;6249;52.128;9.986;2023-03-01T06:23:26;-4.00;99.90
12370;DHT22;6249;52.128;9.986;2023-03-01T06:26:47;-4.00;99.90
12370;DHT22;6249;52.128;9.986;2023-03-01T06:30:09;-4.00;99.90
12370;DHT22;6249;52.128;9.986;2023-03-01T06:33:33;-4.10;99.90
12370;DHT22;6249;52.128;9.986;2023-03-01T06:36:56;-4.00;99.90
12370;DHT22;6249;52.128;9.986;2023-03-01T06:40:17;-4.00;99.90
12370;DHT22;6249;52.128;9.986;2023-03-01T06:43:37;-4.00;99.90
12370;DHT22;6249;52.128;9.986;2023-03-01T06:46:58;-4.00;99.90
12370;DHT22;6249;52.128;9.986;2023-03-01T06:50:19;-3.90;99.90
12370;DHT22;6249;52.128;9.986;2023-03-01T06:53:39;-3.90;99.90
12370;DHT22;6249;52.128;9.986;2023-03-01T06:57:02;-3.80;99.90
12370;DHT22;6249;52.128;9.986;2023-03-01T07:00:24;-3.80;99.90
12370;DHT22;6249;52.128;9.986;2023-03-01T07:03:44;-3.70;99.90
12370;DHT22;6249;52.128;9.986;2023-03-01T07:07:05;-3.70;99.90
12370;DHT22;6249;52.128;9.986;2023-03-01T07:10:26;-3.60;99.90
12370;DHT22;6249;52.128;9.986;2023-03-01T07:13:51;-3.50;99.90
12370;DHT22;6249;52.128;9.986;2023-03-01T07:17:15;-3.30;99.90
12370;DHT22;6249;52.128;9.986;2023-03-01T07:20:36;-3.20;99.90
12370;DHT22;6249;52.128;9.986;2023-03-01T07:23:56;-3.00;99.90
12370;DHT22;6249;52.128;9.986;2023-03-01T07:27:17;-2.70;99.90
12370;DHT22;6249;52.128;9.986;2023-03-01T07:30:37;-2.60;99.90
12370;DHT22;6249;52.128;9.986;2023-03-01T07:33:58;-2.40;99.90
12370;DHT22;6249;52.128;9.986;2023-03-01T07:37:19;-2.30;99.90
12370;DHT22;6249;52.128;9.986;2023-03-01T07:40:39;-2.10;99.90
12370;DHT22;6249;52.128;9.986;2023-03-01T07:44:02;-2.00;99.90
12370;DHT22;6249;52.128;9.986;2023-03-01T07:47:23;-1.80;99.90
12370;DHT22;6249;52.128;9.986;2023-03-01T07:50:48;-1.50;99.90
12370;DHT22;6249;52.128;9.986;2023-03-01T07:54:08;-1.30;99.90
12370;DHT22;6249;52.128;9.986;2023-03-01T07:57:29;-1.10;99.90
12370;DHT22;6249;52.128;9.986;2023-03-01T08:00:52;-0.80;99.90
12370;DHT22;6249;52.128;9.986;2023-03-01T08:04:12;-0.60;99.90
12370;DHT22;6249;52.128;9.986;2023-03-01T08:07:33;-0.40;99.90
12370;DHT22;6249;52.128;9.986;2023-03-01T08:11:00;-0.20;99.90
12370;DHT22;6249;52.128;9.986;2023-03-01T08:14:20;-0.20;99.90
12370;DHT22;6249;52.128;9.986;2023-03-01T08:17:41;-0.10;99.90
12370;DHT22;6249;52.128;9.986;2023-03-01T08:21:04;0.20;99.90
12370;DHT22;6249;52.128;9.986;2023-03-01T08:24:25;0.40;99.90
12370;DHT22;6249;52.128;9.986;2023-03-01T08:27:45;0.70;99.90
12370;DHT22;6249;52.128;9.986;2023-03-01T08:34:41;1.30;99.90
12370;DHT22;6249;52.128;9.986;2023-03-01T08:38:03;1.60;99.90
12370;DHT22;6249;52.128;9.986;2023-03-01T08:41:24;1.80;99.90
12370;DHT22;6249;52.128;9.986;2023-03-01T08:44:47;1.90;99.90
12370;DHT22;6249;52.128;9.986;2023-03-01T08:48:15;2.00;99.90
12370;DHT22;6249;52.128;9.986;2023-03-01T08:51:36;2.40;99.90
12370;DHT22;6249;52.128;9.986;2023-03-01T08:54:59;2.60;99.90
12370;DHT22;6249;52.128;9.986;2023-03-01T08:58:23;2.70;99.90
12370;DHT22;6249;52.128;9.986;2023-03-01T09:01:47;2.90;99.90
12370;DHT22;6249;52.128;9.986;2023-03-01T09:05:10;2.90;99.90
12370;DHT22;6249;52.128;9.986;2023-03-01T09:08:31;3.00;99.90
12370;DHT22;6249;52.128;9.986;2023-03-01T09:11:54;3.30;99.90
12370;DHT22;6249;52.128;9.986;2023-03-01T09:15:19;3.50;99.90
12370;DHT22;6249;52.128;9.986;2023-03-01T09:18:42;3.80;99.90
12370;DHT22;6249;52.128;9.986;2023-03-01T09:22:05;4.00;99.90
12370;DHT22;6249;52.128;9.986;2023-03-01T09:25:28;4.10;99.90
12370;DHT22;6249;52.128;9.986;2023-03-01T09:28:53;4.30;99.90
12370;DHT22;6249;52.128;9.986;2023-03-01T09:32:14;4.60;99.90
12370;DHT22;6249;52.128;9.986;2023-03-01T09:35:34;4.90;99.90
12370;DHT22;6249;52.128;9.986;2023-03-01T09:38:55;5.30;99.90
12370;DHT22;6249;52.128;9.986;2023-03-01T09:42:15;5.60;99.90
12370;DHT22;6249;52.128;9.986;2023-03-01T09:45:40;6.30;99.20
12370;DHT22;6249;52.128;9.986;2023-03-01T09:49:15;6.30;98.60
12370;DHT22;6249;52.128;9.986;2023-03-01T09:56:25;7.20;97.10
12370;DHT22;6249;52.128;9.986;2023-03-01T10:10:37;8.10;93.90
12370;DHT22;6249;52.128;9.986;2023-03-01T10:17:57;9.20;92.70
12370;DHT22;6249;52.128;9.986;2023-03-01T10:21:20;9.90;91.70
12370;DHT22;6249;52.128;9.986;2023-03-01T10:24:40;10.50;89.50
12370;DHT22;6249;52.128;9.986;2023-03-01T10:28:17;11.20;87.20
12370;DHT22;6249;52.128;9.986;2023-03-01T10:35:21;12.00;83.10
12370;DHT22;6249;52.128;9.986;2023-03-01T10:38:56;12.00;82.50
12370;DHT22;6249;52.128;9.986;2023-03-01T10:42:39;12.50;78.20
12370;DHT22;6249;52.128;9.986;2023-03-01T10:46:00;13.60;73.40
12370;DHT22;6249;52.128;9.986;2023-03-01T10:49:23;13.90;70.60
12370;DHT22;6249;52.128;9.986;2023-03-01T10:53:00;14.20;68.90
12370;DHT22;6249;52.128;9.986;2023-03-01T10:56:21;13.90;70.80
12370;DHT22;6249;52.128;9.986;2023-03-01T10:59:46;14.20;69.00
12370;DHT22;6249;52.128;9.986;2023-03-01T11:03:26;14.50;66.70
12370;DHT22;6249;52.128;9.986;2023-03-01T11:06:58;14.90;64.90
12370;DHT22;6249;52.128;9.986;2023-03-01T11:10:39;15.40;61.80
12370;DHT22;6249;52.128;9.986;2023-03-01T11:14:06;15.40;62.20
12370;DHT22;6249;52.128;9.986;2023-03-01T11:17:30;16.10;59.10
12370;DHT22;6249;52.128;9.986;2023-03-01T11:20:53;16.30;56.20
12370;DHT22;6249;52.128;9.986;2023-03-01T11:24:17;16.50;54.50
12370;DHT22;6249;52.128;9.986;2023-03-01T11:27:45;16.90;53.00
12370;DHT22;6249;52.128;9.986;2023-03-01T11:31:09;17.30;51.70
12370;DHT22;6249;52.128;9.986;2023-03-01T11:34:40;17.40;49.50
12370;DHT22;6249;52.128;9.986;2023-03-01T11:38:16;17.70;47.70
12370;DHT22;6249;52.128;9.986;2023-03-01T11:41:39;17.90;47.40
12370;DHT22;6249;52.128;9.986;2023-03-01T11:45:08;18.10;46.40
12370;DHT22;6249;52.128;9.986;2023-03-01T11:52:42;18.20;46.40
12370;DHT22;6249;52.128;9.986;2023-03-01T12:07:03;19.70;42.50
12370;DHT22;6249;52.128;9.986;2023-03-01T12:10:36;20.20;41.30
12370;DHT22;6249;52.128;9.986;2023-03-01T12:50:44;21.90;34.40
12370;DHT22;6249;52.128;9.986;2023-03-01T12:54:16;21.90;33.70
12370;DHT22;6249;52.128;9.986;2023-03-01T12:57:54;22.10;35.20
12370;DHT22;6249;52.128;9.986;2023-03-01T13:08:45;23.70;33.80
12370;DHT22;6249;52.128;9.986;2023-03-01T13:19:57;24.30;31.70
12370;DHT22;6249;52.128;9.986;2023-03-01T13:34:01;23.90;31.10
12370;DHT22;6249;52.128;9.986;2023-03-01T13:37:35;23.20;31.20
12370;DHT22;6249;52.128;9.986;2023-03-01T13:41:00;22.90;32.40
12370;DHT22;6249;52.128;9.986;2023-03-01T13:44:32;22.80;33.70
12370;DHT22;6249;52.128;9.986;2023-03-01T13:48:22;22.90;32.30
12370;DHT22;6249;52.128;9.986;2023-03-01T13:51:41;23.40;32.60
12370;DHT22;6249;52.128;9.986;2023-03-01T13:55:05;23.90;32.00
12370;DHT22;6249;52.128;9.986;2023-03-01T13:58:30;24.50;31.60
12370;DHT22;6249;52.128;9.986;2023-03-01T14:01:56;24.40;30.00
12370;DHT22;6249;52.128;9.986;2023-03-01T14:05:20;24.70;30.80
12370;DHT22;6249;52.128;9.986;2023-03-01T14:08:40;24.80;29.90
12370;DHT22;6249;52.128;9.986;2023-03-01T14:16:25;25.20;30.60
12370;DHT22;6249;52.128;9.986;2023-03-01T14:19:56;25.80;29.30
12370;DHT22;6249;52.128;9.986;2023-03-01T14:23:24;24.70;29.10
12370;DHT22;6249;52.128;9.986;2023-03-01T14:26:48;24.10;31.10
12370;DHT22;6249;52.128;9.986;2023-03-01T14:33:41;25.40;30.00
12370;DHT22;6249;52.128;9.986;2023-03-01T14:37:32;25.50;29.00
12370;DHT22;6249;52.128;9.986;2023-03-01T14:40:59;25.10;29.20
12370;DHT22;6249;52.128;9.986;2023-03-01T14:44:23;25.30;29.80
12370;DHT22;6249;52.128;9.986;2023-03-01T14:47:45;24.80;29.80
12370;DHT22;6249;52.128;9.986;2023-03-01T14:51:11;24.30;29.80
12370;DHT22;6249;52.128;9.986;2023-03-01T14:54:43;25.20;29.40
12370;DHT22;6249;52.128;9.986;2023-03-01T14:58:09;25.80;28.80
12370;DHT22;6249;52.128;9.986;2023-03-01T15:01:34;26.00;28.30
12370;DHT22;6249;52.128;9.986;2023-03-01T15:05:00;25.20;28.80
12370;DHT22;6249;52.128;9.986;2023-03-01T15:08:24;25.30;29.00
12370;DHT22;6249;52.128;9.986;2023-03-01T15:11:45;25.80;28.30
12370;DHT22;6249;52.128;9.986;2023-03-01T15:15:30;25.40;28.80
12370;DHT22;6249;52.128;9.986;2023-03-01T15:19:03;25.40;29.00
12370;DHT22;6249;52.128;9.986;2023-03-01T15:22:27;25.90;28.60
12370;DHT22;6249;52.128;9.986;2023-03-01T15:25:48;25.40;28.20
12370;DHT22;6249;52.128;9.986;2023-03-01T15:29:18;25.10;29.00
12370;DHT22;6249;52.128;9.986;2023-03-01T15:32:41;25.10;29.10
12370;DHT22;6249;52.128;9.986;2023-03-01T15:39:57;25.80;29.00
12370;DHT22;6249;52.128;9.986;2023-03-01T15:43:44;25.60;28.40
12370;DHT22;6249;52.128;9.986;2023-03-01T15:50:44;25.60;29.10
12370;DHT22;6249;52.128;9.986;2023-03-01T15:54:19;25.40;28.50
12370;DHT22;6249;52.128;9.986;2023-03-01T15:57:41;24.20;29.20
12370;DHT22;6249;52.128;9.986;2023-03-01T16:01:11;24.50;29.00
12370;DHT22;6249;52.128;9.986;2023-03-01T16:04:35;24.50;29.20
12370;DHT22;6249;52.128;9.986;2023-03-01T16:07:57;23.90;28.50
12370;DHT22;6249;52.128;9.986;2023-03-01T16:11:19;23.60;29.70
12370;DHT22;6249;52.128;9.986;2023-03-01T16:14:40;22.80;29.60
12370;DHT22;6249;52.128;9.986;2023-03-01T16:18:01;22.30;29.40
12370;DHT22;6249;52.128;9.986;2023-03-01T16:21:23;22.30;30.70
12370;DHT22;6249;52.128;9.986;2023-03-01T16:24:45;21.80;31.40
12370;DHT22;6249;52.128;9.986;2023-03-01T16:28:05;21.00;30.90
12370;DHT22;6249;52.128;9.986;2023-03-01T16:31:29;20.30;31.90
12370;DHT22;6249;52.128;9.986;2023-03-01T16:34:52;20.30;32.60
12370;DHT22;6249;52.128;9.986;2023-03-01T16:38:15;20.00;33.30
12370;DHT22;6249;52.128;9.986;2023-03-01T16:41:35;19.20;33.00
12370;DHT22;6249;52.128;9.986;2023-03-01T16:44:56;18.40;34.10
12370;DHT22;6249;52.128;9.986;2023-03-01T16:48:17;17.20;35.70
12370;DHT22;6249;52.128;9.986;2023-03-01T16:51:37;16.10;36.90
12370;DHT22;6249;52.128;9.986;2023-03-01T16:55:01;15.30;38.20
12370;DHT22;6249;52.128;9.986;2023-03-01T16:58:22;14.50;39.70
12370;DHT22;6249;52.128;9.986;2023-03-01T17:01:44;13.90;40.20
12370;DHT22;6249;52.128;9.986;2023-03-01T17:05:09;13.30;41.20
12370;DHT22;6249;52.128;9.986;2023-03-01T17:08:31;12.70;42.30
12370;DHT22;6249;52.128;9.986;2023-03-01T17:11:52;12.20;43.30
12370;DHT22;6249;52.128;9.986;2023-03-01T17:15:15;11.50;44.50
12370;DHT22;6249;52.128;9.986;2023-03-01T17:18:36;11.20;46.00
12370;DHT22;6249;52.128;9.986;2023-03-01T17:21:59;10.90;47.00
12370;DHT22;6249;52.128;9.986;2023-03-01T17:25:20;10.70;47.60
12370;DHT22;6249;52.128;9.986;2023-03-01T17:28:41;10.50;48.70
12370;DHT22;6249;52.128;9.986;2023-03-01T17:32:03;10.10;50.00
12370;DHT22;6249;52.128;9.986;2023-03-01T17:35:29;9.60;52.50
12370;DHT22;6249;52.128;9.986;2023-03-01T17:38:49;9.30;54.00
12370;DHT22;6249;52.128;9.986;2023-03-01T17:42:12;9.10;55.20
12370;DHT22;6249;52.128;9.986;2023-03-01T17:45:35;8.80;56.40
12370;DHT22;6249;52.128;9.986;2023-03-01T17:48:58;8.50;57.50
12370;DHT22;6249;52.128;9.986;2023-03-01T17:52:21;8.30;58.10
12370;DHT22;6249;52.128;9.986;2023-03-01T17:55:43;8.20;58.40
12370;DHT22;6249;52.128;9.986;2023-03-01T17:59:07;8.10;57.80
12370;DHT22;6249;52.128;9.986;2023-03-01T18:02:30;8.00;57.90
12370;DHT22;6249;52.128;9.986;2023-03-01T18:05:57;7.90;57.90
12370;DHT22;6249;52.128;9.986;2023-03-01T18:09:18;7.80;58.00
12370;DHT22;6249;52.128;9.986;2023-03-01T18:12:43;7.60;57.80
12370;DHT22;6249;52.128;9.986;2023-03-01T18:16:09;7.50;58.50
12370;DHT22;6249;52.128;9.986;2023-03-01T18:19:30;7.40;58.60
12370;DHT22;6249;52.128;9.986;2023-03-01T18:22:50;7.30;58.70
12370;DHT22;6249;52.128;9.986;2023-03-01T18:26:14;7.20;58.70
12370;DHT22;6249;52.128;9.986;2023-03-01T18:29:41;7.10;58.60
12370;DHT22;6249;52.128;9.986;2023-03-01T18:33:04;7.10;59.80
12370;DHT22;6249;52.128;9.986;2023-03-01T18:36:29;7.00;61.10
12370;DHT22;6249;52.128;9.986;2023-03-01T18:39:53;6.80;62.80
12370;DHT22;6249;52.128;9.986;2023-03-01T18:43:13;6.70;64.60
12370;DHT22;6249;52.128;9.986;2023-03-01T18:46:34;7.40;66.20
12370;DHT22;6249;52.128;9.986;2023-03-01T18:49:58;6.40;65.80
12370;DHT22;6249;52.128;9.986;2023-03-01T18:53:19;7.20;67.20
12370;DHT22;6249;52.128;9.986;2023-03-01T18:56:47;4.90;66.50
12370;DHT22;6249;52.128;9.986;2023-03-01T19:00:11;5.90;67.60
12370;DHT22;6249;52.128;9.986;2023-03-01T19:03:34;5.90;68.80
12370;DHT22;6249;52.128;9.986;2023-03-01T19:06:55;5.80;68.70
12370;DHT22;6249;52.128;9.986;2023-03-01T19:10:16;5.70;69.70
12370;DHT22;6249;52.128;9.986;2023-03-01T19:13:38;5.60;71.30
12370;DHT22;6249;52.128;9.986;2023-03-01T19:16:59;5.50;71.40
12370;DHT22;6249;52.128;9.986;2023-03-01T19:20:19;5.40;73.00
12370;DHT22;6249;52.128;9.986;2023-03-01T19:23:40;5.20;74.40
12370;DHT22;6249;52.128;9.986;2023-03-01T19:27:00;5.20;75.50
12370;DHT22;6249;52.128;9.986;2023-03-01T19:30:21;5.20;76.80
12370;DHT22;6249;52.128;9.986;2023-03-01T19:33:43;5.10;77.50
12370;DHT22;6249;52.128;9.986;2023-03-01T19:37:04;5.00;78.80
12370;DHT22;6249;52.128;9.986;2023-03-01T19:40:25;4.80;79.90
12370;DHT22;6249;52.128;9.986;2023-03-01T19:43:48;4.70;81.30
12370;DHT22;6249;52.128;9.986;2023-03-01T19:47:08;4.50;80.10
12370;DHT22;6249;52.128;9.986;2023-03-01T19:50:29;4.60;80.40
12370;DHT22;6249;52.128;9.986;2023-03-01T19:53:49;4.70;80.40
12370;DHT22;6249;52.128;9.986;2023-03-01T19:57:12;5.00;79.90
12370;DHT22;6249;52.128;9.986;2023-03-01T20:00:33;4.80;79.40
12370;DHT22;6249;52.128;9.986;2023-03-01T20:03:56;4.80;79.20
12370;DHT22;6249;52.128;9.986;2023-03-01T20:07:19;4.90;79.20
12370;DHT22;6249;52.128;9.986;2023-03-01T20:10:40;4.80;79.20
12370;DHT22;6249;52.128;9.986;2023-03-01T20:14:00;4.80;80.30
12370;DHT22;6249;52.128;9.986;2023-03-01T20:17:22;4.90;81.30
12370;DHT22;6249;52.128;9.986;2023-03-01T20:20:49;4.60;81.60
12370;DHT22;6249;52.128;9.986;2023-03-01T20:24:12;4.70;81.80
12370;DHT22;6249;52.128;9.986;2023-03-01T20:27:33;4.60;81.80
12370;DHT22;6249;52.128;9.986;2023-03-01T20:30:53;4.70;81.90
12370;DHT22;6249;52.128;9.986;2023-03-01T20:34:14;4.80;82.10
12370;DHT22;6249;52.128;9.986;2023-03-01T20:37:45;4.80;83.10
12370;DHT22;6249;52.128;9.986;2023-03-01T20:41:08;4.80;85.80
12370;DHT22;6249;52.128;9.986;2023-03-01T20:44:29;4.50;88.40
12370;DHT22;6249;52.128;9.986;2023-03-01T20:47:50;4.40;89.50
12370;DHT22;6249;52.128;9.986;2023-03-01T20:51:12;4.30;90.60
12370;DHT22;6249;52.128;9.986;2023-03-01T20:54:35;4.10;91.80
12370;DHT22;6249;52.128;9.986;2023-03-01T20:57:55;3.80;92.80
12370;DHT22;6249;52.128;9.986;2023-03-01T21:01:18;3.60;93.90
12370;DHT22;6249;52.128;9.986;2023-03-01T21:04:40;3.40;94.70
12370;DHT22;6249;52.128;9.986;2023-03-01T21:08:03;3.30;95.40
12370;DHT22;6249;52.128;9.986;2023-03-01T21:11:28;3.10;95.70
12370;DHT22;6249;52.128;9.986;2023-03-01T21:14:49;3.00;96.20
12370;DHT22;6249;52.128;9.986;2023-03-01T21:18:12;3.00;96.90
12370;DHT22;6249;52.128;9.986;2023-03-01T21:21:32;2.90;97.10
12370;DHT22;6249;52.128;9.986;2023-03-01T21:24:53;3.00;97.70
12370;DHT22;6249;52.128;9.986;2023-03-01T21:28:16;2.70;98.00
12370;DHT22;6249;52.128;9.986;2023-03-01T21:31:39;2.60;98.10
12370;DHT22;6249;52.128;9.986;2023-03-01T21:35:02;2.60;98.40
12370;DHT22;6249;52.128;9.986;2023-03-01T21:38:25;2.60;98.50
12370;DHT22;6249;52.128;9.986;2023-03-01T21:41:48;2.60;98.70
12370;DHT22;6249;52.128;9.986;2023-03-01T21:45:09;2.60;98.40
12370;DHT22;6249;52.128;9.986;2023-03-01T21:48:33;2.50;99.00
12370;DHT22;6249;52.128;9.986;2023-03-01T21:51:56;2.30;99.50
12370;DHT22;6249;52.128;9.986;2023-03-01T21:55:16;2.00;99.90
12370;DHT22;6249;52.128;9.986;2023-03-01T21:58:37;1.80;99.90
12370;DHT22;6249;52.128;9.986;2023-03-01T22:02:00;1.70;99.90
12370;DHT22;6249;52.128;9.986;2023-03-01T22:05:20;1.60;99.90
12370;DHT22;6249;52.128;9.986;2023-03-01T22:08:41;1.60;99.90
12370;DHT22;6249;52.128;9.986;2023-03-01T22:12:01;1.60;99.90
12370;DHT22;6249;52.128;9.986;2023-03-01T22:15:25;1.50;99.90
12370;DHT22;6249;52.128;9.986;2023-03-01T22:18:46;1.50;99.90
12370;DHT22;6249;52.128;9.986;2023-03-01T22:22:07;1.40;99.90
12370;DHT22;6249;52.128;9.986;2023-03-01T22:25:30;1.40;99.90
12370;DHT22;6249;52.128;9.986;2023-03-01T22:28:56;1.40;99.90
12370;DHT22;6249;52.128;9.986;2023-03-01T22:32:19;1.40;99.90
12370;DHT22;6249;52.128;9.986;2023-03-01T22:35:41;1.20;99.90
12370;DHT22;6249;52.128;9.986;2023-03-01T22:39:02;1.10;99.90
12370;DHT22;6249;52.128;9.986;2023-03-01T22:42:23;1.20;99.90
12370;DHT22;6249;52.128;9.986;2023-03-01T22:45:44;1.20;99.90
12370;DHT22;6249;52.128;9.986;2023-03-01T22:49:04;1.40;99.90
12370;DHT22;6249;52.128;9.986;2023-03-01T22:52:27;1.30;99.90
12370;DHT22;6249;52.128;9.986;2023-03-01T22:55:48;1.30;99.90
12370;DHT22;6249;52.128;9.986;2023-03-01T22:59:13;1.40;99.90
12370;DHT22;6249;52.128;9.986;2023-03-01T23:02:36;1.50;99.90
12370;DHT22;6249;52.128;9.986;2023-03-01T23:06:01;1.60;99.90
12370;DHT22;6249;52.128;9.986;2023-03-01T23:09:30;1.50;99.90
12370;DHT22;6249;52.128;9.986;2023-03-01T23:12:57;1.30;99.90
12370;DHT22;6249;52.128;9.986;2023-03-01T23:16:21;1.20;99.90
12370;DHT22;6249;52.128;9.986;2023-03-01T23:19:45;1.10;99.90
12370;DHT22;6249;52.128;9.986;2023-03-01T23:23:05;1.00;99.90
12370;DHT22;6249;52.128;9.986;2023-03-01T23:26:29;0.90;99.90
12370;DHT22;6249;52.128;9.986;2023-03-01T23:29:50;0.80;99.90
12370;DHT22;6249;52.128;9.986;2023-03-01T23:33:11;0.80;99.90
12370;DHT22;6249;52.128;9.986;2023-03-01T23:36:33;0.80;99.90
12370;DHT22;6249;52.128;9.986;2023-03-01T23:39:53;0.90;99.90
12370;DHT22;6249;52.128;9.986;2023-03-01T23:43:16;1.00;99.90
12370;DHT22;6249;52.128;9.986;2023-03-01T23:46:39;0.70;99.90
12370;DHT22;6249;52.128;9.986;2023-03-01T23:50:00;0.60;99.90
12370;DHT22;6249;52.128;9.986;2023-03-01T23:53:23;0.50;99.90
12370;DHT22;6249;52.128;9.986;2023-03-01T23:56:45;0.40;99.90
